Time;durP1;ratioP1;P1;durP2;ratioP2;P2;SDS_P1;SDS_P2;PMS_P1;PMS_P2;Temp;Humidity;BMP_temperature;BMP_pressure;BME280_temperature;BME280_humidity;BME280_pressure;Samples;Min_cycle;Max_cycle;Signal;HPM_P1;HPM_P2
2021/03/16 00:00:25;;;;;;;8.85;5.93;;;;;;;20.73;43.05;102591.94;5051944;28;20028;-77
2021/03/16 00:02:51;;;;;;;7.60;6.38;;;;;;;20.71;42.91;102585.91;5051917;28;20036;-79
2021/03/16 00:05:16;;;;;;;8.05;6.57;;;;;;;20.86;42.52;102587.28;5052037;28;20104;-79
2021/03/16 00:07:42;;;;;;;7.53;6.10;;;;;;;21.02;42.16;102575.19;5052158;28;20111;-77
2021/03/16 00:10:08;;;;;;;7.03;6.05;;;;;;;20.84;42.44;102572.88;5051473;28;20041;-76
2021/03/16 00:12:34;;;;;;;7.63;6.82;;;;;;;20.87;42.33;102572.22;5052074;28;20391;-77
2021/03/16 00:14:59;;;;;;;8.27;6.55;;;;;;;20.62;42.66;102571.25;5051827;28;20032;-77
2021/03/16 00:17:25;;;;;;;6.57;5.82;;;;;;;20.42;43.30;102572.84;5052013;28;20033;-83
2021/03/16 00:19:50;;;;;;;7.80;5.88;;;;;;;20.67;42.69;102574.66;5054425;28;20049;-77
2021/03/16 00:22:16;;;;;;;7.68;6.75;;;;;;;20.62;42.74;102576.81;5055758;28;20550;-76
2021/03/16 00:24:41;;;;;;;9.00;6.05;;;;;;;20.37;43.48;102579.38;5055429;28;20056;-76
2021/03/16 00:27:07;;;;;;;6.63;5.53;;;;;;;20.43;43.47;102586.38;5055618;28;20106;-78
2021/03/16 00:29:33;;;;;;;7.07;6.03;;;;;;;20.69;42.75;102588.19;5055528;28;20029;-77
2021/03/16 00:31:58;;;;;;;7.70;6.10;;;;;;;20.76;42.60;102594.03;5055491;28;20502;-77
2021/03/16 00:34:24;;;;;;;7.82;6.32;;;;;;;20.46;43.25;102596.81;5055487;28;20036;-77
2021/03/16 00:36:49;;;;;;;7.70;5.50;;;;;;;20.75;42.57;102597.97;5055426;28;20029;-75
2021/03/16 00:39:15;;;;;;;7.55;5.45;;;;;;;20.64;42.94;102593.97;5053860;28;20033;-76
2021/03/16 00:41:41;;;;;;;6.93;6.20;;;;;;;20.69;42.84;102597.34;5054811;28;20099;-75
2021/03/16 00:44:06;;;;;;;6.95;6.25;;;;;;;20.66;42.94;102594.44;5055312;28;20040;-82
2021/03/16 00:46:33;;;;;;;7.07;6.20;;;;;;;20.71;42.98;102597.03;5048549;28;20483;-79
2021/03/16 00:48:59;;;;;;;7.25;5.60;;;;;;;20.80;42.60;102594.19;5051779;28;20029;-76
2021/03/16 00:51:24;;;;;;;8.77;5.80;;;;;;;20.77;42.42;102599.25;5053871;28;20118;-82
2021/03/16 00:53:50;;;;;;;9.13;5.05;;;;;;;20.56;43.07;102589.28;5055098;28;20017;-78
2021/03/16 00:56:15;;;;;;;5.80;4.95;;;;;;;20.69;42.62;102582.63;5055043;28;20029;-76
2021/03/16 00:58:41;;;;;;;5.82;5.10;;;;;;;20.61;42.95;102575.19;5054659;28;20033;-76
2021/03/16 01:01:07;;;;;;;5.72;5.13;;;;;;;20.80;42.27;102583.06;5054911;28;20036;-77
2021/03/16 01:03:33;;;;;;;6.40;5.47;;;;;;;20.90;41.94;102577.09;5052187;28;20024;-77
2021/03/16 01:06:00;;;;;;;6.43;5.07;;;;;;;21.01;41.64;102579.13;5052680;28;20017;-77
2021/03/16 01:08:25;;;;;;;6.63;5.15;;;;;;;20.86;42.11;102579.75;5051580;28;20043;-78
2021/03/16 01:10:52;;;;;;;6.82;5.53;;;;;;;21.02;41.72;102574.41;5051827;28;20035;-77
2021/03/16 01:13:19;;;;;;;9.45;5.55;;;;;;;20.80;42.03;102575.53;5053418;28;20029;-77
2021/03/16 01:15:45;;;;;;;6.63;4.85;;;;;;;20.88;42.00;102573.84;5052036;28;20032;-77
2021/03/16 01:18:11;;;;;;;6.70;4.80;;;;;;;20.97;41.73;102588.47;5051948;28;20356;-77
2021/03/16 01:20:37;;;;;;;6.53;5.03;;;;;;;20.98;41.64;102577.03;5053133;28;20099;-78
2021/03/16 01:23:03;;;;;;;6.82;4.63;;;;;;;21.02;41.58;102580.75;5054535;28;20025;-79
2021/03/16 01:25:29;;;;;;;6.22;4.72;;;;;;;20.85;42.03;102586.44;5053842;28;20025;-77
2021/03/16 01:27:57;;;;;;;5.55;4.28;;;;;;;20.76;42.17;102585.69;5054721;28;20100;-77
2021/03/16 01:30:24;;;;;;;8.10;4.10;;;;;;;21.02;41.36;102583.53;5054008;28;20070;-77
2021/03/16 01:32:50;;;;;;;6.35;4.25;;;;;;;20.71;42.21;102585.91;5054488;28;20021;-77
2021/03/16 01:35:15;;;;;;;6.75;4.65;;;;;;;20.83;41.71;102583.19;5054454;28;20036;-80
2021/03/16 01:37:42;;;;;;;6.07;4.10;;;;;;;20.97;41.54;102569.84;5054272;28;20021;-77
2021/03/16 01:40:16;;;;;;;5.63;3.92;;;;;;;20.79;41.88;102582.25;5054304;28;20082;-77
2021/03/16 01:42:42;;;;;;;8.40;4.53;;;;;;;20.73;42.20;102573.31;5054346;28;20029;-77
2021/03/16 01:45:17;;;;;;;6.32;4.35;;;;;;;20.73;42.25;102567.75;5054179;28;20162;-77
2021/03/16 01:47:48;;;;;;;6.78;3.58;;;;;;;20.41;42.81;102572.03;5052887;28;20040;-77
2021/03/16 01:50:19;;;;;;;6.68;3.78;;;;;;;20.68;42.20;102565.16;5052833;28;20507;-77
2021/03/16 01:52:46;;;;;;;7.75;4.38;;;;;;;20.79;41.98;102571.16;5054086;28;20017;-77
2021/03/16 01:55:12;;;;;;;7.80;3.60;;;;;;;20.42;42.95;102576.41;5053985;28;20025;-76
2021/03/16 01:57:39;;;;;;;4.93;3.47;;;;;;;20.55;42.61;102565.41;5053875;28;20025;-77
2021/03/16 02:00:06;;;;;;;10.10;3.90;;;;;;;20.63;42.46;102556.22;5053729;28;20027;-77
2021/03/16 02:02:31;;;;;;;7.22;3.80;;;;;;;20.62;42.65;102560.13;5053898;28;20035;-78
2021/03/16 02:04:57;;;;;;;6.15;3.80;;;;;;;20.54;42.87;102556.28;5053745;28;20394;-77
2021/03/16 02:07:28;;;;;;;6.30;3.83;;;;;;;20.55;42.55;102559.84;5052500;28;20047;-81
2021/03/16 02:10:22;;;;;;;7.75;4.43;;;;;;;20.52;43.13;102560.53;5053808;28;20418;-77
2021/03/16 02:12:57;;;;;;;7.63;4.40;;;;;;;20.22;43.96;102552.19;5051320;28;20041;-81
2021/03/16 02:15:41;;;;;;;7.45;4.22;;;;;;;20.52;43.24;102557.78;5053617;28;20055;-77
2021/03/16 02:18:14;;;;;;;10.23;4.32;;;;;;;20.42;43.62;102565.31;5053589;28;20064;-77
2021/03/16 02:20:51;;;;;;;6.78;4.35;;;;;;;20.49;43.36;102568.41;5053218;28;20052;-78
2021/03/16 02:23:25;;;;;;;11.43;4.25;;;;;;;20.45;43.46;102573.00;5053538;28;20032;-77
2021/03/16 02:26:13;;;;;;;9.05;4.80;;;;;;;20.70;43.29;102559.25;5053412;28;20051;-77
2021/03/16 02:29:06;;;;;;;7.93;4.50;;;;;;;20.54;43.56;102561.00;5053211;28;20036;-76
2021/03/16 02:31:33;;;;;;;7.78;4.00;;;;;;;20.62;43.23;102560.94;5053420;28;20092;-77
2021/03/16 02:34:02;;;;;;;12.05;5.43;;;;;;;20.51;43.75;102565.28;5053095;28;20100;-76
2021/03/16 02:36:28;;;;;;;9.07;4.75;;;;;;;20.65;43.33;102567.81;5053156;28;20025;-77
2021/03/16 02:38:55;;;;;;;7.93;4.90;;;;;;;20.66;43.47;102573.03;5052358;28;20028;-83
2021/03/16 02:41:23;;;;;;;6.63;4.78;;;;;;;20.82;43.25;102564.91;5051485;28;20036;-76
2021/03/16 02:43:48;;;;;;;7.70;4.85;;;;;;;20.81;43.29;102573.56;5053030;28;20040;-77
2021/03/16 02:46:15;;;;;;;9.55;4.80;;;;;;;20.74;43.59;102574.13;5052992;28;20029;-76
2021/03/16 02:48:43;;;;;;;9.25;4.72;;;;;;;21.05;42.85;102580.06;5051660;28;20052;-77
2021/03/16 02:51:10;;;;;;;7.30;4.35;;;;;;;21.05;42.99;102579.25;5052756;28;20025;-77
2021/03/16 02:53:36;;;;;;;6.88;4.38;;;;;;;21.05;43.08;102570.91;5052942;28;20017;-77
2021/03/16 02:56:04;;;;;;;9.68;4.72;;;;;;;21.01;42.96;102568.03;5052416;28;20047;-77
2021/03/16 02:58:29;;;;;;;6.88;4.30;;;;;;;21.04;43.08;102563.75;5039462;28;20025;-77
2021/03/16 03:00:57;;;;;;;9.60;4.75;;;;;;;21.03;43.01;102565.72;5048158;28;20124;-77
2021/03/16 03:03:23;;;;;;;7.40;4.63;;;;;;;20.90;43.60;102560.44;5032390;28;20037;-77
2021/03/16 03:05:51;;;;;;;8.55;4.60;;;;;;;21.00;43.34;102555.25;5032394;28;20037;-77
2021/03/16 03:08:20;;;;;;;8.63;5.00;;;;;;;21.07;43.24;102546.38;5032449;28;20037;-77
2021/03/16 03:10:46;;;;;;;7.90;5.53;;;;;;;21.16;42.98;102544.34;5032661;28;20037;-77
2021/03/16 03:13:12;;;;;;;17.63;6.35;;;;;;;21.24;43.05;102551.78;5032348;28;20040;-77
2021/03/16 03:15:37;;;;;;;7.28;5.20;;;;;;;21.15;43.19;102559.38;5032428;28;20391;-77
2021/03/16 03:18:03;;;;;;;13.70;6.20;;;;;;;21.20;43.05;102547.25;5032454;28;20032;-77
2021/03/16 03:20:29;;;;;;;9.27;5.78;;;;;;;20.89;44.07;102550.47;5032361;28;20535;-77
2021/03/16 03:23:10;;;;;;;9.95;5.68;;;;;;;20.82;44.20;102561.31;5032542;28;20037;-77
2021/03/16 03:25:41;;;;;;;8.10;5.82;;;;;;;20.60;44.71;102556.91;5048014;28;20059;-77
2021/03/16 03:28:16;;;;;;;11.57;6.28;;;;;;;20.42;45.25;102572.84;5032519;28;20472;-76
2021/03/16 03:30:43;;;;;;;10.02;5.63;;;;;;;20.59;44.96;102566.38;5032526;28;20140;-77
2021/03/16 03:33:10;;;;;;;8.50;6.00;;;;;;;20.80;44.26;102567.22;5032474;28;20025;-77
2021/03/16 03:35:37;;;;;;;11.90;5.55;;;;;;;20.73;44.76;102578.84;5032322;28;20040;-77
2021/03/16 03:38:05;;;;;;;8.75;5.03;;;;;;;20.92;44.39;102572.81;5032080;28;20033;-77
2021/03/16 03:40:32;;;;;;;10.98;5.75;;;;;;;21.02;43.95;102563.28;5032252;28;20468;-77
2021/03/16 03:43:03;;;;;;;9.75;5.15;;;;;;;20.87;44.42;102570.25;5032486;28;20029;-79
2021/03/16 03:45:30;;;;;;;9.85;4.90;;;;;;;20.95;44.25;102560.22;5032373;28;20029;-77
2021/03/16 03:47:59;;;;;;;6.90;4.80;;;;;;;20.83;44.49;102552.63;5032379;28;20120;-77
2021/03/16 03:50:25;;;;;;;7.88;4.50;;;;;;;20.78;44.68;102556.44;5032253;28;20029;-76
2021/03/16 03:52:52;;;;;;;6.35;4.07;;;;;;;21.03;44.11;102540.69;5033185;28;20104;-76
2021/03/16 03:55:19;;;;;;;5.38;4.00;;;;;;;20.99;44.39;102553.63;5036397;28;20044;-77
2021/03/16 03:57:46;;;;;;;9.20;4.00;;;;;;;21.04;44.23;102549.84;5036218;28;20468;-77
2021/03/16 04:00:15;;;;;;;6.18;3.20;;;;;;;20.82;44.70;102548.22;5035865;28;20025;-78
2021/03/16 04:02:42;;;;;;;5.57;3.80;;;;;;;20.61;45.38;102553.78;5036180;28;20033;-78
2021/03/16 04:05:18;;;;;;;4.97;3.13;;;;;;;20.55;45.61;102560.66;5036046;28;20387;-77
2021/03/16 04:07:44;;;;;;;6.70;3.70;;;;;;;20.77;45.00;102559.53;5036403;28;20107;-77
2021/03/16 04:10:11;;;;;;;6.35;2.95;;;;;;;20.68;45.25;102559.59;5035996;28;20022;-76
2021/03/16 04:12:38;;;;;;;6.25;3.00;;;;;;;20.74;45.01;102563.00;5035949;28;20163;-77
2021/03/16 04:15:08;;;;;;;5.25;2.50;;;;;;;21.00;44.35;102552.47;5036017;28;20026;-77
2021/03/16 04:17:34;;;;;;;3.78;2.30;;;;;;;20.77;44.93;102559.53;5035832;28;20022;-77
2021/03/16 04:20:01;;;;;;;6.47;2.60;;;;;;;20.44;46.08;102549.16;5035504;28;20056;-77
2021/03/16 04:22:27;;;;;;;6.22;2.70;;;;;;;20.83;45.00;102560.97;5035588;28;20035;-77
2021/03/16 04:24:56;;;;;;;3.63;2.50;;;;;;;20.73;45.03;102558.59;5035645;28;20025;-77
2021/03/16 04:27:23;;;;;;;6.80;2.65;;;;;;;20.80;45.17;102560.84;5035734;28;20028;-76
2021/03/16 04:29:48;;;;;;;4.72;2.50;;;;;;;20.95;44.75;102563.81;5035592;28;20040;-77
2021/03/16 04:32:14;;;;;;;4.43;2.20;;;;;;;20.75;45.07;102567.41;5035720;28;20029;-77
2021/03/16 04:34:39;;;;;;;4.13;2.08;;;;;;;20.74;45.40;102572.16;5050922;28;20033;-77
2021/03/16 04:37:05;;;;;;;3.58;1.75;;;;;;;20.65;45.52;102576.16;5035473;28;20049;-77
2021/03/16 04:39:31;;;;;;;5.57;1.80;;;;;;;20.78;45.21;102569.50;5035566;28;20060;-77
2021/03/16 04:41:57;;;;;;;3.65;1.92;;;;;;;20.75;45.45;102576.56;5035366;28;20037;-77
2021/03/16 04:44:23;;;;;;;2.25;1.65;;;;;;;20.44;46.05;102568.59;5035099;28;20033;-77
2021/03/16 04:46:49;;;;;;;3.33;1.70;;;;;;;20.64;45.67;102569.78;5035039;28;20060;-77
2021/03/16 04:49:14;;;;;;;3.35;1.50;;;;;;;20.57;45.87;102546.47;5050766;28;20056;-76
2021/03/16 04:51:40;;;;;;;4.22;1.45;;;;;;;20.29;46.62;102549.72;5035210;28;20057;-77
2021/03/16 04:54:06;;;;;;;9.80;1.67;;;;;;;19.99;47.47;102561.94;5035339;28;20025;-77
2021/03/16 04:56:32;;;;;;;2.80;1.20;;;;;;;20.30;46.44;102554.13;5035204;28;20021;-77
2021/03/16 04:58:58;;;;;;;2.38;1.50;;;;;;;20.42;46.18;102568.09;5035178;28;20041;-77
2021/03/16 05:01:23;;;;;;;2.72;1.30;;;;;;;20.41;46.22;102585.91;5035030;28;20037;-77
2021/03/16 05:03:49;;;;;;;2.33;1.30;;;;;;;20.43;46.20;102586.38;5034541;28;20057;-83
2021/03/16 05:06:14;;;;;;;4.32;1.85;;;;;;;20.45;46.08;102589.66;5034812;28;20084;-76
2021/03/16 05:08:40;;;;;;;1.92;1.30;;;;;;;20.27;46.99;102585.31;5035014;28;20096;-77
2021/03/16 05:11:05;;;;;;;3.20;1.55;;;;;;;20.53;46.11;102578.84;5049871;28;20121;-77
2021/03/16 05:13:31;;;;;;;4.68;1.88;;;;;;;20.50;46.09;102586.69;5034986;28;20100;-80
2021/03/16 05:15:57;;;;;;;3.03;1.55;;;;;;;20.69;45.63;102590.97;5034828;28;20116;-77
2021/03/16 05:18:22;;;;;;;2.55;1.50;;;;;;;20.57;45.83;102599.25;5034850;28;20474;-77
2021/03/16 05:20:48;;;;;;;6.15;2.35;;;;;;;20.63;45.59;102608.97;5034461;28;20061;-77
2021/03/16 05:23:13;;;;;;;5.13;1.77;;;;;;;20.76;45.39;102597.63;5034590;28;20463;-77
2021/03/16 05:25:39;;;;;;;5.53;2.35;;;;;;;20.50;46.08;102608.91;5034700;28;20026;-77
2021/03/16 05:28:05;;;;;;;4.03;1.50;;;;;;;20.76;45.11;102622.63;5034593;28;20036;-77
2021/03/16 05:30:30;;;;;;;6.13;2.53;;;;;;;20.80;45.36;102625.56;5034629;28;20041;-82
2021/03/16 05:32:57;;;;;;;7.45;2.15;;;;;;;20.83;45.02;102641.53;5034237;28;20396;-77
2021/03/16 05:35:24;;;;;;;3.20;1.50;;;;;;;20.86;45.29;102642.84;5034449;28;20495;-77
2021/03/16 05:37:50;;;;;;;3.00;1.50;;;;;;;21.01;44.75;102639.47;5034350;28;20432;-77
2021/03/16 05:40:16;;;;;;;4.82;1.60;;;;;;;21.10;44.49;102633.84;5034414;28;20109;-78
2021/03/16 05:42:41;;;;;;;2.80;1.40;;;;;;;20.84;45.21;102640.38;5034301;28;20472;-79
2021/03/16 05:45:08;;;;;;;5.88;1.77;;;;;;;21.08;44.47;102636.13;5034362;28;20033;-77
2021/03/16 05:47:34;;;;;;;3.05;1.40;;;;;;;20.70;45.25;102639.81;5034267;28;20029;-77
2021/03/16 05:50:01;;;;;;;2.45;1.38;;;;;;;20.31;46.26;102650.13;5034242;28;20365;-77
2021/03/16 05:52:27;;;;;;;2.28;1.30;;;;;;;20.58;45.79;102660.00;5034092;28;20199;-77
2021/03/16 05:54:54;;;;;;;2.22;1.30;;;;;;;20.99;44.75;102669.53;5034289;28;20555;-77
2021/03/16 05:57:20;;;;;;;2.45;1.35;;;;;;;21.10;44.66;102670.78;5033612;28;20057;-77
2021/03/16 05:59:47;;;;;;;3.17;1.60;;;;;;;20.96;44.89;102664.66;5034144;28;20068;-77
2021/03/16 06:02:14;;;;;;;1.90;1.20;;;;;;;21.05;44.63;102670.97;5033968;28;20025;-78
2021/03/16 06:04:46;;;;;;;4.50;1.70;;;;;;;20.95;45.00;102677.75;5033848;28;20029;-78
2021/03/16 06:07:13;;;;;;;1.85;1.25;;;;;;;20.95;45.10;102682.50;5033911;28;20033;-77
2021/03/16 06:09:38;;;;;;;1.92;1.20;;;;;;;21.10;44.46;102681.09;5033901;28;20025;-77
2021/03/16 06:12:05;;;;;;;3.67;1.60;;;;;;;21.08;44.39;102688.94;5033756;28;20029;-77
2021/03/16 06:14:32;;;;;;;1.92;1.20;;;;;;;20.74;45.14;102674.94;5033783;28;20031;-78
2021/03/16 06:16:59;;;;;;;1.63;1.25;;;;;;;21.15;43.80;102687.22;5033683;28;20038;-78
2021/03/16 06:19:29;;;;;;;2.22;1.50;;;;;;;21.08;44.37;102688.94;5033178;28;20048;-78
2021/03/16 06:22:03;;;;;;;4.93;1.55;;;;;;;21.05;44.32;102688.47;5032169;28;20065;-78
2021/03/16 06:24:29;;;;;;;3.33;1.60;;;;;;;21.24;43.90;102701.09;5032084;28;20037;-78
2021/03/16 06:26:55;;;;;;;3.17;1.48;;;;;;;21.18;44.07;102708.00;5033564;28;20128;-78
2021/03/16 06:29:22;;;;;;;4.25;1.50;;;;;;;21.05;44.65;102707.09;5033365;28;20025;-78
2021/03/16 06:31:48;;;;;;;2.50;1.15;;;;;;;21.24;44.35;102717.78;5033359;28;20037;-78
2021/03/16 06:34:25;;;;;;;2.97;1.10;;;;;;;21.29;44.06;102717.59;5033448;28;20025;-84
2021/03/16 06:37:00;;;;;;;2.55;1.60;;;;;;;21.23;44.01;102713.34;5033228;28;20030;-77
2021/03/16 06:39:27;;;;;;;1.83;1.05;;;;;;;21.13;44.51;102724.88;5033311;28;20108;-78
2021/03/16 06:41:54;;;;;;;1.88;1.20;;;;;;;21.29;44.03;102707.28;5033175;28;20075;-78
2021/03/16 06:44:21;;;;;;;2.22;1.60;;;;;;;21.29;44.09;102729.53;5032835;28;20427;-78
2021/03/16 06:46:55;;;;;;;2.63;1.17;;;;;;;21.20;44.36;102731.53;5033167;28;20029;-78
2021/03/16 06:49:22;;;;;;;1.33;1.00;;;;;;;21.24;44.29;102738.06;5033180;28;20436;-78
2021/03/16 06:51:49;;;;;;;2.60;1.38;;;;;;;21.52;43.61;102746.69;5032948;28;20037;-77
2021/03/16 06:54:16;;;;;;;7.25;1.75;;;;;;;21.58;43.37;102748.13;5033006;28;20033;-78
2021/03/16 06:56:50;;;;;;;2.55;1.20;;;;;;;21.58;43.51;102742.56;5033083;28;20029;-78
2021/03/16 06:59:22;;;;;;;3.83;1.70;;;;;;;21.49;43.70;102744.59;5033095;28;20408;-78
2021/03/16 07:01:47;;;;;;;2.47;1.30;;;;;;;21.64;43.41;102751.50;5032800;28;20083;-78
2021/03/16 07:04:18;;;;;;;1.83;1.58;;;;;;;21.62;43.65;102747.44;5032899;28;20029;-84
2021/03/16 07:06:44;;;;;;;4.25;1.25;;;;;;;21.67;43.22;102744.44;5038220;28;20078;-84
2021/03/16 07:09:11;;;;;;;2.72;1.40;;;;;;;21.74;43.28;102747.50;5052993;28;20036;-78
2021/03/16 07:11:39;;;;;;;2.50;1.15;;;;;;;21.56;43.68;102750.44;5052837;28;20074;-90
2021/03/16 07:14:06;;;;;;;1.65;1.10;;;;;;;21.72;43.44;102758.16;5049459;28;20070;-79
2021/03/16 07:16:33;;;;;;;2.55;1.40;;;;;;;21.73;43.40;102748.66;5050265;28;20559;-75
2021/03/16 07:19:03;;;;;;;1.38;1.17;;;;;;;21.80;43.26;102760.03;5052647;28;20024;-76
2021/03/16 07:21:39;;;;;;;1.67;1.10;;;;;;;21.75;43.19;102760.25;5053522;28;20029;-90
2021/03/16 07:24:10;;;;;;;2.47;1.00;;;;;;;21.79;43.25;102764.81;5053789;28;20383;-89
2021/03/16 07:26:37;;;;;;;2.50;1.08;;;;;;;21.63;43.55;102763.78;5052681;28;20055;-91
2021/03/16 07:29:07;;;;;;;9.65;3.28;;;;;;;21.57;43.68;102768.75;5055335;28;20032;-78
2021/03/16 07:31:35;;;;;;;1.55;1.33;;;;;;;21.76;43.26;102773.00;5056914;28;20047;-80
2021/03/16 07:34:05;;;;;;;1.00;0.90;;;;;;;21.89;42.63;102788.59;5057532;28;20039;-82
2021/03/16 07:36:33;;;;;;;1.23;0.88;;;;;;;22.15;42.28;102783.66;5056738;28;20067;-81
2021/03/16 07:38:59;;;;;;;1.00;0.73;;;;;;;22.17;42.39;102790.84;5056043;28;20037;-81
2021/03/16 07:41:26;;;;;;;2.83;1.25;;;;;;;22.09;42.36;102793.38;5054428;28;20077;-75
2021/03/16 07:44:04;;;;;;;1.88;0.73;;;;;;;22.00;42.79;102792.63;5055995;28;20020;-78
2021/03/16 07:47:02;;;;;;;0.65;0.65;;;;;;;21.93;42.12;102803.47;5056149;28;20064;-76
2021/03/16 07:49:38;;;;;;;1.40;0.88;;;;;;;22.18;42.18;102801.63;5041662;28;20024;-79
2021/03/16 07:52:23;;;;;;;1.25;0.57;;;;;;;22.12;42.37;102812.16;5056031;28;20016;-79
2021/03/16 07:54:50;;;;;;;1.92;0.60;;;;;;;22.23;42.03;102823.69;5055801;28;20020;-80
2021/03/16 07:57:34;;;;;;;1.48;0.57;;;;;;;21.87;42.50;102827.91;5056195;28;20021;-77
2021/03/16 08:00:09;;;;;;;1.73;1.38;;;;;;;21.90;42.35;102834.75;5072688;28;20021;-80
2021/03/16 08:02:37;;;;;;;1.05;0.95;;;;;;;22.11;42.02;102838.38;5071018;28;20044;-78
2021/03/16 08:05:16;;;;;;;8.93;8.20;;;;;;;21.32;43.15;102845.66;5072508;28;20070;-86
2021/03/16 08:07:41;;;;;;;6.77;6.17;;;;;;;22.05;42.00;102852.81;5060954;28;20101;-77
2021/03/16 08:10:08;;;;;;;6.70;6.05;;;;;;;21.89;42.21;102858.19;5056134;28;20434;-80
2021/03/16 08:12:33;;;;;;;5.85;5.22;;;;;;;22.17;41.45;102860.44;5055700;28;20047;-78
2021/03/16 08:15:13;;;;;;;3.95;3.55;;;;;;;22.24;41.45;102861.53;5055061;28;20360;-78
2021/03/16 08:17:39;;;;;;;;;;;;;;;22.08;41.46;102883.63;5055415;28;20029;-78
2021/03/16 08:20:05;;;;;;;4.43;4.03;;;;;;;21.92;41.66;102879.78;5054462;28;19940;-78
2021/03/16 08:22:31;;;;;;;2.20;1.90;;;;;;;21.80;41.88;102882.47;5053982;28;20158;-78
2021/03/16 08:24:59;;;;;;;2.58;2.17;;;;;;;22.08;41.41;102885.59;5053835;28;20483;-78
2021/03/16 08:27:27;;;;;;;1.27;1.17;;;;;;;22.04;41.24;102885.41;5061473;28;20029;-78
2021/03/16 08:29:53;;;;;;;4.15;2.05;;;;;;;22.05;41.03;102878.69;5070658;28;20482;-78
2021/03/16 08:32:20;;;;;;;2.88;2.58;;;;;;;22.12;40.93;102880.94;5071843;28;20024;-78
2021/03/16 08:34:47;;;;;;;3.67;3.38;;;;;;;22.32;40.56;102882.91;5070748;28;20067;-79
2021/03/16 08:37:33;;;;;;;2.97;2.40;;;;;;;22.26;40.60;102883.44;5071444;28;20029;-78
2021/03/16 08:39:59;;;;;;;2.38;1.70;;;;;;;22.29;40.39;102885.53;5072991;28;20032;-84
2021/03/16 08:42:26;;;;;;;12.35;11.15;;;;;;;22.27;40.49;102893.44;5049572;28;20055;-79
2021/03/16 08:44:53;;;;;;;4.13;0.70;;;;;;;22.31;40.61;102899.97;5056290;28;20033;-80
2021/03/16 08:47:21;;;;;;;4.07;1.70;;;;;;;22.36;40.23;102897.75;5058374;28;20021;-77
2021/03/16 08:49:50;;;;;;;2.40;1.48;;;;;;;22.37;39.80;102913.34;5055210;28;20024;-78
2021/03/16 08:52:27;;;;;;;3.05;1.73;;;;;;;22.31;39.90;102916.66;5058209;28;20535;-79
2021/03/16 08:54:55;;;;;;;3.85;1.83;;;;;;;22.43;39.76;102914.75;5056661;28;20025;-78
2021/03/16 08:57:23;;;;;;;3.72;2.50;;;;;;;22.27;40.02;102919.31;5052876;28;20021;-91
2021/03/16 08:59:53;;;;;;;4.28;2.40;;;;;;;22.07;39.94;102918.16;5056321;28;20055;-93
2021/03/16 09:02:20;;;;;;;5.30;3.13;;;;;;;22.53;39.25;102924.66;5054735;28;20036;-89
2021/03/16 09:04:46;;;;;;;5.72;2.95;;;;;;;22.51;39.42;102940.88;5070276;28;20060;-79
2021/03/16 09:07:21;;;;;;;4.28;1.73;;;;;;;22.68;38.67;102948.28;5074476;28;20078;-89
2021/03/16 09:09:46;;;;;;;7.18;1.85;;;;;;;22.11;39.92;102946.94;5055040;28;20089;-82
2021/03/16 09:12:15;;;;;;;5.07;2.03;;;;;;;22.45;39.25;102944.25;5053642;28;20065;-78
2021/03/16 09:14:40;;;;;;;3.10;1.67;;;;;;;21.97;39.28;102940.78;5054976;28;20520;-81
2021/03/16 09:17:06;;;;;;;5.28;2.03;;;;;;;22.05;39.30;102942.69;5054484;28;20112;-79
2021/03/16 09:19:32;;;;;;;8.45;2.13;;;;;;;22.24;38.71;102947.84;5054585;28;20099;-84
2021/03/16 09:22:01;;;;;;;7.50;2.30;;;;;;;22.62;38.36;102950.47;5054391;28;20044;-89
2021/03/16 09:24:31;;;;;;;5.25;1.92;;;;;;;22.41;38.48;102941.31;5052409;28;20395;-80
2021/03/16 09:26:58;;;;;;;;;;;;;;;22.35;38.40;102962.97;5055089;28;20083;-78
2021/03/16 09:29:34;;;;;;;15.20;2.65;;;;;;;22.47;38.07;102945.53;5054707;28;19916;-79
2021/03/16 09:32:11;;;;;;;10.82;1.98;;;;;;;22.42;37.92;102956.88;5054076;28;20044;-91
2021/03/16 09:34:39;;;;;;;5.13;2.30;;;;;;;22.58;37.49;102960.66;5053233;28;20537;-84
2021/03/16 09:37:10;;;;;;;7.13;1.75;;;;;;;22.42;37.28;102977.19;5052457;28;20476;-79
2021/03/16 09:39:36;;;;;;;17.00;2.10;;;;;;;22.66;37.21;102982.03;5051886;28;20116;-79
2021/03/16 09:42:04;;;;;;;8.27;2.22;;;;;;;22.97;36.74;103000.31;5049898;28;20036;-88
2021/03/16 09:44:39;;;;;;;21.95;5.22;;;;;;;23.03;36.55;103001.72;5053710;28;20033;-88
2021/03/16 09:47:07;;;;;;;18.80;5.35;;;;;;;23.21;36.27;103014.34;5054258;28;20031;-78
2021/03/16 09:49:38;;;;;;;23.08;4.22;;;;;;;22.96;35.92;103013.44;5054110;28;20029;-87
2021/03/16 09:52:07;;;;;;;17.58;4.90;;;;;;;23.44;35.74;103014.72;5053896;28;20025;-78
2021/03/16 09:54:45;;;;;;;34.03;7.82;;;;;;;23.39;35.74;103008.56;5071594;28;20029;-80
2021/03/16 09:57:15;;;;;;;18.83;4.20;;;;;;;23.47;35.54;103011.25;5075119;28;20437;-83
2021/03/16 09:59:43;;;;;;;36.33;7.20;;;;;;;23.78;35.51;103005.13;5056657;28;20024;-89
2021/03/16 10:02:10;;;;;;;7.25;2.97;;;;;;;23.82;35.35;102998.88;5052355;28;20110;-88
2021/03/16 10:04:48;;;;;;;8.18;3.00;;;;;;;23.41;35.23;103004.25;5054236;28;20040;-77
2021/03/16 10:07:27;;;;;;;43.75;7.47;;;;;;;23.86;35.44;102983.84;5056262;28;20029;-89
2021/03/16 10:09:53;;;;;;;6.15;2.60;;;;;;;23.89;35.53;102971.19;5060646;28;20064;-81
2021/03/16 10:12:21;;;;;;;23.63;4.15;;;;;;;23.56;35.39;102958.13;5049017;28;20090;-78
2021/03/16 10:14:51;;;;;;;6.38;2.28;;;;;;;23.71;35.37;102974.19;5052156;28;20036;-78
2021/03/16 10:17:23;;;;;;;;;;;;;;;23.59;35.15;102982.53;5036176;28;20040;-87
2021/03/16 10:19:57;;;;;;;9.05;2.80;;;;;;;23.48;34.76;103006.47;5050353;28;19925;-90
2021/03/16 10:22:36;;;;;;;66.72;13.98;;;;;;;23.74;34.05;103032.13;5052582;28;20035;-87
2021/03/16 10:25:08;;;;;;;10.27;2.03;;;;;;;23.95;34.39;103034.78;5053717;28;20021;-80
2021/03/16 10:27:34;;;;;;;13.70;3.78;;;;;;;24.08;33.84;103032.81;5051679;28;20029;-81
2021/03/16 10:30:10;;;;;;;27.63;4.93;;;;;;;24.04;33.81;103037.47;5051794;28;20021;-83
2021/03/16 10:32:38;;;;;;;78.30;14.48;;;;;;;23.96;34.38;103046.78;5053461;28;20100;-80
2021/03/16 10:35:04;;;;;;;14.75;3.97;;;;;;;24.03;33.67;103061.78;5053817;28;20026;-78
2021/03/16 10:37:30;;;;;;;25.00;5.65;;;;;;;24.03;33.32;103072.97;5052165;28;20047;-80
2021/03/16 10:39:59;;;;;;;53.28;8.73;;;;;;;24.07;33.29;103061.91;5052313;28;20029;-79
2021/03/16 10:42:24;;;;;;;24.13;4.20;;;;;;;23.96;33.29;103060.75;5050373;28;20455;-78
2021/03/16 10:44:50;;;;;;;26.63;5.63;;;;;;;24.13;33.51;103057.72;5053615;28;20036;-77
2021/03/16 10:47:15;;;;;;;8.50;2.70;;;;;;;23.92;33.86;103057.81;5051957;28;20036;-80
2021/03/16 10:49:41;;;;;;;36.92;8.18;;;;;;;24.44;32.94;103051.53;5051724;28;20029;-79
2021/03/16 10:52:06;;;;;;;10.90;3.10;;;;;;;24.43;33.27;103046.28;5052228;28;20033;-78
2021/03/16 10:54:35;;;;;;;15.20;4.47;;;;;;;24.46;32.95;103039.97;5053715;28;20048;-78
2021/03/16 10:57:00;;;;;;;21.33;4.68;;;;;;;24.38;32.66;103060.50;5052792;28;20035;-83
2021/03/16 10:59:26;;;;;;;11.23;4.28;;;;;;;23.76;32.54;103071.66;5052408;28;20112;-84
2021/03/16 11:01:52;;;;;;;33.75;7.00;;;;;;;24.25;31.67;103068.84;5052485;28;20028;-84
2021/03/16 11:04:18;;;;;;;19.58;6.15;;;;;;;24.02;31.31;103067.69;5051683;28;20036;-82
2021/03/16 11:06:47;;;;;;;17.50;4.70;;;;;;;24.18;31.39;103082.63;5051712;28;20024;-86
2021/03/16 11:09:14;;;;;;;36.08;6.95;;;;;;;24.14;31.07;103089.25;5052369;28;20103;-79
2021/03/16 11:11:40;;;;;;;16.40;5.47;;;;;;;23.74;31.16;103081.56;5052442;28;20039;-79
2021/03/16 11:14:05;;;;;;;39.00;6.63;;;;;;;23.67;31.44;103086.88;5067840;28;20021;-79
2021/03/16 11:16:31;;;;;;;17.30;3.75;;;;;;;23.99;30.46;103072.03;5057706;28;20047;-78
2021/03/16 11:18:57;;;;;;;21.00;5.43;;;;;;;23.64;31.46;103076.41;5050860;28;20029;-84
2021/03/16 11:21:22;;;;;;;21.83;4.22;;;;;;;24.05;31.28;103089.38;5050136;28;20495;-81
2021/03/16 11:23:49;;;;;;;22.65;7.93;;;;;;;23.92;31.46;103084.94;5040245;28;20135;-85
2021/03/16 11:26:14;;;;;;;14.75;3.92;;;;;;;23.76;31.72;103090.38;5052878;28;20064;-89
2021/03/16 11:28:40;;;;;;;17.40;4.82;;;;;;;24.24;31.01;103094.34;5051767;28;20029;-86